createdAt,value
2022-10-28T00:00:19.890Z,100719.88
2022-10-28T00:02:49.474Z,100713.56
2022-10-28T00:05:19.229Z,100710.88
2022-10-28T00:07:48.799Z,100714.19
2022-10-28T00:10:18.566Z,100713.97
2022-10-28T00:12:50.697Z,100704.88
2022-10-28T00:15:20.659Z,100702.84
2022-10-28T00:17:50.301Z,100698.88
2022-10-28T00:20:20.656Z,100698.53
2022-10-28T00:22:50.288Z,100701.88
2022-10-28T00:25:24.589Z,100701.66
2022-10-28T00:27:56.795Z,100698.69
2022-10-28T00:30:26.416Z,100687.00
2022-10-28T00:32:56.496Z,100684.31
2022-10-28T00:35:26.328Z,100684.31
2022-10-28T00:37:56.006Z,100685.16
2022-10-28T00:40:25.673Z,100690.66
2022-10-28T00:42:57.786Z,100693.50
2022-10-28T00:45:27.541Z,100673.19
2022-10-28T00:47:58.709Z,100683.78
2022-10-28T00:50:44.097Z,100669.41
2022-10-28T00:53:17.226Z,100672.72
2022-10-28T00:55:47.490Z,100657.31
2022-10-28T00:58:20.709Z,100668.59
2022-10-28T01:00:50.328Z,100661.06
2022-10-28T01:03:19.937Z,100655.41
2022-10-28T01:05:51.687Z,100663.09
2022-10-28T01:08:21.747Z,100665.44
2022-10-28T01:11:15.793Z,100669.72
2022-10-28T01:14:02.241Z,100679.50
2022-10-28T01:16:36.978Z,100686.47
2022-10-28T01:19:24.326Z,100683.44
2022-10-28T01:22:15.031Z,100679.25
2022-10-28T01:25:02.227Z,100667.97
2022-10-28T01:27:50.237Z,100667.53
2022-10-28T01:30:23.789Z,100656.69
2022-10-28T01:33:02.558Z,100658.53
2022-10-28T01:35:35.818Z,100654.97
2022-10-28T01:38:16.582Z,100652.28
2022-10-28T01:40:49.787Z,100654.97
2022-10-28T01:43:25.032Z,100655.72
2022-10-28T01:45:59.122Z,100658.28
2022-10-28T01:48:34.598Z,100659.88
2022-10-28T01:51:07.108Z,100667.81
2022-10-28T01:53:38.658Z,100654.41
2022-10-28T01:56:11.354Z,100658.06
2022-10-28T01:58:42.002Z,100657.22
2022-10-28T02:01:12.831Z,100652.81
2022-10-28T02:03:44.989Z,100667.94
2022-10-28T02:06:19.420Z,100670.72
2022-10-28T02:09:18.345Z,100671.69
2022-10-28T02:12:06.837Z,100666.56
2022-10-28T02:14:48.569Z,100668.59
2022-10-28T02:17:24.072Z,100660.66
2022-10-28T02:20:04.138Z,100652.75
2022-10-28T02:22:38.040Z,100651.88
2022-10-28T02:25:08.697Z,100652.75
2022-10-28T02:27:42.534Z,100652.09
2022-10-28T02:30:12.576Z,100654.03
2022-10-28T02:32:45.379Z,100649.13
2022-10-28T02:35:21.596Z,100647.63
2022-10-28T02:37:52.322Z,100647.97
2022-10-28T02:40:24.272Z,100640.25
2022-10-28T02:42:57.111Z,100653.63
2022-10-28T02:45:30.849Z,100650.22
2022-10-28T02:48:02.636Z,100639.75
2022-10-28T02:50:38.111Z,100647.84
2022-10-28T02:53:13.775Z,100639.75
2022-10-28T02:55:45.999Z,100639.81
2022-10-28T02:58:15.515Z,100641.88
2022-10-28T03:00:47.512Z,100635.75
2022-10-28T03:03:17.185Z,100637.72
2022-10-28T03:05:49.553Z,100631.59
2022-10-28T03:08:19.074Z,100629.97
2022-10-28T03:10:48.638Z,100632.00
2022-10-28T03:13:18.155Z,100628.56
2022-10-28T03:15:47.671Z,100630.50
2022-10-28T03:18:17.175Z,100623.44
2022-10-28T03:20:50.205Z,100634.38
2022-10-28T03:23:19.747Z,100629.44
2022-10-28T03:25:49.293Z,100624.53
2022-10-28T03:28:18.796Z,100632.97
2022-10-28T03:30:48.389Z,100630.63
2022-10-28T03:33:18.173Z,100630.09
2022-10-28T03:35:50.370Z,100627.53
2022-10-28T03:38:19.905Z,100622.38
2022-10-28T03:40:50.480Z,100621.50
2022-10-28T03:43:20.572Z,100612.75
2022-10-28T03:45:50.579Z,100614.34
2022-10-28T03:48:20.280Z,100602.88
2022-10-28T03:50:55.320Z,100609.94
2022-10-28T03:53:27.650Z,100605.44
2022-10-28T03:56:00.336Z,100595.59
2022-10-28T03:58:30.438Z,100600.75
2022-10-28T04:01:00.114Z,100592.47
2022-10-28T04:03:29.680Z,100592.38
2022-10-28T04:06:01.841Z,100586.91
2022-10-28T04:08:31.383Z,100581.34
2022-10-28T04:11:00.950Z,100586.59
2022-10-28T04:13:30.457Z,100579.53
2022-10-28T04:16:02.005Z,100576.84
2022-10-28T04:18:31.978Z,100590.13
2022-10-28T04:21:04.698Z,100589.16
2022-10-28T04:23:34.278Z,100599.03
2022-10-28T04:26:03.836Z,100598.16
2022-10-28T04:28:33.348Z,100600.00
2022-10-28T04:31:03.128Z,100605.47
2022-10-28T04:33:32.654Z,100605.47
2022-10-28T04:36:04.796Z,100603.84
2022-10-28T04:38:34.382Z,100603.09
2022-10-28T04:41:04.052Z,100604.91
2022-10-28T04:43:33.559Z,100614.88
2022-10-28T04:46:06.078Z,100612.63
2022-10-28T04:48:35.694Z,100604.81
2022-10-28T04:51:08.228Z,100604.81
2022-10-28T04:53:37.749Z,100599.47
2022-10-28T04:56:07.895Z,100601.38
2022-10-28T04:58:37.448Z,100604.28
2022-10-28T05:01:09.030Z,100603.72
2022-10-28T05:03:38.854Z,100607.59
2022-10-28T05:06:11.432Z,100611.31
2022-10-28T05:08:40.970Z,100611.53
2022-10-28T05:11:10.544Z,100618.72
2022-10-28T05:13:40.071Z,100616.25
2022-10-28T05:16:11.107Z,100614.00
2022-10-28T05:18:40.710Z,100611.72
2022-10-28T05:21:13.024Z,100607.66
2022-10-28T05:23:42.633Z,100616.75
2022-10-28T05:26:12.199Z,100618.69
2022-10-28T05:28:41.947Z,100610.94
2022-10-28T05:31:12.269Z,100603.91
2022-10-28T05:33:41.807Z,100606.56
2022-10-28T05:36:13.975Z,100609.16
2022-10-28T05:38:45.446Z,100610.53
2022-10-28T05:41:15.091Z,100611.16
2022-10-28T05:43:44.595Z,100603.69
2022-10-28T05:46:14.131Z,100612.38
2022-10-28T05:48:43.686Z,100621.06
2022-10-28T05:51:15.809Z,100623.44
2022-10-28T05:53:45.377Z,100624.50
2022-10-28T05:56:15.226Z,100619.34
2022-10-28T05:58:44.826Z,100623.19
2022-10-28T06:01:14.498Z,100621.69
2022-10-28T06:03:44.162Z,100621.03
2022-10-28T06:06:16.397Z,100613.97
2022-10-28T06:08:45.932Z,100620.28
2022-10-28T06:11:14.489Z,100617.69
2022-10-28T06:13:44.068Z,100616.97
2022-10-28T06:16:13.618Z,100624.03
2022-10-28T06:18:43.189Z,100625.72
2022-10-28T06:21:15.330Z,100618.25
2022-10-28T06:23:44.877Z,100622.44
2022-10-28T06:26:14.435Z,100615.78
2022-10-28T06:28:44.018Z,100611.88
2022-10-28T06:31:13.836Z,100610.69
2022-10-28T06:33:43.396Z,100621.81
2022-10-28T06:36:15.545Z,100631.34
2022-10-28T06:38:46.041Z,100630.28
2022-10-28T06:41:15.615Z,100636.28
2022-10-28T06:43:45.210Z,100640.38
2022-10-28T06:46:14.792Z,100635.66
2022-10-28T06:48:45.830Z,100633.00
2022-10-28T06:51:18.661Z,100626.69
2022-10-28T06:53:51.445Z,100630.19
2022-10-28T06:56:21.027Z,100636.41
2022-10-28T06:58:53.159Z,100639.97
2022-10-28T07:01:23.473Z,100637.16
2022-10-28T07:03:53.109Z,100638.66
2022-10-28T07:06:25.785Z,100647.97
2022-10-28T07:08:55.347Z,100643.78
2022-10-28T07:11:24.911Z,100647.88
2022-10-28T07:13:54.428Z,100649.28
2022-10-28T07:16:23.983Z,100651.63
2022-10-28T07:18:53.512Z,100645.97
2022-10-28T07:21:28.565Z,100643.91
2022-10-28T07:23:58.682Z,100647.25
2022-10-28T07:26:28.383Z,100649.59
2022-10-28T07:28:58.026Z,100646.13
2022-10-28T07:31:27.813Z,100646.50
2022-10-28T07:33:57.583Z,100649.44
2022-10-28T07:36:29.747Z,100652.34
2022-10-28T07:38:59.269Z,100646.50
2022-10-28T07:41:29.082Z,100650.84
2022-10-28T07:43:58.714Z,100648.31
2022-10-28T07:46:28.267Z,100637.22
2022-10-28T07:48:57.870Z,100647.00
2022-10-28T07:51:30.175Z,100639.81
2022-10-28T07:54:00.170Z,100644.84
2022-10-28T07:56:29.760Z,100649.41
2022-10-28T07:58:59.299Z,100647.81
2022-10-28T08:01:28.916Z,100652.66
2022-10-28T08:03:58.656Z,100664.41
2022-10-28T08:06:30.861Z,100657.28
2022-10-28T08:09:00.403Z,100666.19
2022-10-28T08:11:29.955Z,100666.50
2022-10-28T08:13:59.804Z,100663.78
2022-10-28T08:16:29.517Z,100665.38
2022-10-28T08:19:01.099Z,100680.53
2022-10-28T08:21:35.028Z,100663.88
2022-10-28T08:24:04.585Z,100666.97
2022-10-28T08:26:34.123Z,100658.16
2022-10-28T08:29:03.685Z,100653.31
2022-10-28T08:31:35.867Z,100647.59
2022-10-28T08:34:05.422Z,100648.81
2022-10-28T08:36:37.627Z,100643.81
2022-10-28T08:39:07.346Z,100648.94
2022-10-28T08:41:41.242Z,100658.50
2022-10-28T08:44:41.200Z,100661.41
2022-10-28T08:47:29.125Z,100657.28
2022-10-28T08:50:00.367Z,100656.16
2022-10-28T08:52:37.481Z,100662.44
2022-10-28T08:55:09.349Z,100650.75
2022-10-28T08:57:41.975Z,100641.09
2022-10-28T09:00:21.360Z,100648.19
2022-10-28T09:02:58.821Z,100651.06
2022-10-28T09:05:29.593Z,100649.63
2022-10-28T09:08:02.054Z,100640.09
2022-10-28T09:10:46.779Z,100640.91
2022-10-28T09:13:23.265Z,100646.94
2022-10-28T09:15:59.319Z,100641.28
2022-10-28T09:18:38.507Z,100640.38
2022-10-28T09:21:14.822Z,100645.78
2022-10-28T09:23:50.508Z,100639.22
2022-10-28T09:26:24.538Z,100626.47
2022-10-28T09:29:02.989Z,100630.06
2022-10-28T09:31:37.630Z,100629.34
2022-10-28T09:34:27.722Z,100628.19
2022-10-28T09:37:01.023Z,100629.34
2022-10-28T09:39:34.139Z,100618.69
2022-10-28T09:42:05.833Z,100636.03
2022-10-28T09:44:42.042Z,100633.94
2022-10-28T09:47:17.474Z,100636.28
2022-10-28T09:49:48.072Z,100630.66
2022-10-28T09:52:21.879Z,100631.75
2022-10-28T09:54:56.295Z,100640.59
2022-10-28T09:57:30.562Z,100635.16
2022-10-28T10:00:00.146Z,100633.75
2022-10-28T10:02:31.896Z,100645.94
2022-10-28T10:05:03.187Z,100625.47
2022-10-28T10:07:37.229Z,100638.88
2022-10-28T10:10:16.894Z,100652.81
2022-10-28T10:12:48.695Z,100638.06
2022-10-28T10:15:27.461Z,100621.56
2022-10-28T10:17:58.393Z,100651.63
2022-10-28T10:20:27.961Z,100639.88
2022-10-28T10:22:57.762Z,100629.66
2022-10-28T10:25:34.263Z,100661.00
2022-10-28T10:28:05.518Z,100628.28
2022-10-28T10:30:39.074Z,100650.66
2022-10-28T10:33:09.267Z,100655.19
2022-10-28T10:35:40.126Z,100651.19
2022-10-28T10:38:09.894Z,100629.59
2022-10-28T10:40:51.165Z,100628.16
2022-10-28T10:43:26.744Z,100626.59
2022-10-28T10:46:03.226Z,100628.00
2022-10-28T10:48:36.430Z,100636.28
2022-10-28T10:51:11.403Z,100629.19
2022-10-28T10:53:41.422Z,100620.63
2022-10-28T10:56:15.736Z,100620.63
2022-10-28T10:58:51.728Z,100613.50
2022-10-28T11:01:23.360Z,100626.47
2022-10-28T11:06:49.823Z,100621.22
2022-10-28T11:09:23.565Z,100617.81
2022-10-28T11:11:56.437Z,100620.34
2022-10-28T11:14:29.448Z,100604.13
2022-10-28T11:17:00.037Z,100604.97
2022-10-28T11:19:32.163Z,100601.25
2022-10-28T11:22:19.618Z,100602.91
2022-10-28T11:25:03.835Z,100586.38
2022-10-28T11:27:47.520Z,100593.78
2022-10-28T11:30:23.005Z,100587.69
2022-10-28T11:33:02.113Z,100588.38
2022-10-28T11:35:57.196Z,100582.97
2022-10-28T11:38:52.468Z,100573.84
2022-10-28T11:41:29.142Z,100569.84
2022-10-28T11:44:05.297Z,100564.84
2022-10-28T11:46:41.223Z,100569.28
2022-10-28T11:49:41.418Z,100573.69
2022-10-28T11:52:23.585Z,100565.56
2022-10-28T11:55:01.767Z,100569.28
2022-10-28T11:57:40.557Z,100580.50
2022-10-28T12:00:24.401Z,100569.06
2022-10-28T12:03:04.179Z,100557.09
2022-10-28T12:05:39.594Z,100558.69
2022-10-28T12:08:24.443Z,100556.41
2022-10-28T12:11:04.675Z,100560.34
2022-10-28T12:13:41.322Z,100552.75
2022-10-28T12:16:17.648Z,100548.38
2022-10-28T12:18:51.938Z,100545.50
2022-10-28T12:21:28.144Z,100550.59
2022-10-28T12:23:59.206Z,100548.75
2022-10-28T12:26:37.786Z,100545.91
2022-10-28T12:29:13.035Z,100542.34
2022-10-28T12:31:48.631Z,100534.38
2022-10-28T12:34:21.250Z,100545.34
2022-10-28T12:36:53.503Z,100540.94
2022-10-28T12:39:25.667Z,100533.81
2022-10-28T12:41:58.669Z,100533.81
2022-10-28T12:44:29.524Z,100533.97
2022-10-28T12:47:09.740Z,100537.53
2022-10-28T12:49:44.855Z,100529.72
2022-10-28T12:52:24.617Z,100525.59
2022-10-28T12:55:00.082Z,100525.06
2022-10-28T12:57:30.201Z,100520.81
2022-10-28T13:00:02.897Z,100519.94
2022-10-28T13:02:40.392Z,100521.50
2022-10-28T13:05:10.693Z,100526.63
2022-10-28T13:07:57.802Z,100521.91
2022-10-28T13:10:33.422Z,100524.44
2022-10-28T13:13:26.166Z,100523.31
2022-10-28T13:16:05.492Z,100528.41
2022-10-28T13:18:55.644Z,100529.13
2022-10-28T13:21:35.872Z,100529.81
2022-10-28T13:24:09.507Z,100531.50
2022-10-28T13:26:39.073Z,100542.34
2022-10-28T13:29:10.056Z,100540.63
2022-10-28T13:31:44.386Z,100552.31
2022-10-28T13:34:18.481Z,100555.19
2022-10-28T13:36:52.250Z,100550.06
2022-10-28T13:39:27.314Z,100561.19
2022-10-28T13:42:33.563Z,100559.78
2022-10-28T13:45:04.886Z,100560.09
2022-10-28T13:47:35.349Z,100555.97
2022-10-28T13:50:39.979Z,100555.22
2022-10-28T13:53:45.341Z,100563.50
2022-10-28T13:56:21.212Z,100556.38
2022-10-28T13:58:55.568Z,100550.97
2022-10-28T14:02:07.327Z,100554.56
2022-10-28T14:04:44.493Z,100547.75
2022-10-28T14:07:26.669Z,100553.72
2022-10-28T14:09:58.772Z,100557.06
2022-10-28T14:12:33.695Z,100551.69
2022-10-28T14:15:06.523Z,100562.50
2022-10-28T14:17:43.416Z,100562.56
2022-10-28T14:20:26.115Z,100571.41
2022-10-28T14:22:58.510Z,100584.50
2022-10-28T14:25:58.149Z,100580.41
2022-10-28T14:28:55.338Z,100580.81
2022-10-28T14:31:41.091Z,100582.25
2022-10-28T14:34:36.679Z,100589.78
2022-10-28T14:37:15.904Z,100592.47
2022-10-28T14:39:56.238Z,100592.06
2022-10-28T14:42:43.418Z,100595.31
2022-10-28T14:45:24.290Z,100603.88
2022-10-28T14:48:11.050Z,100607.69
2022-10-28T14:50:42.665Z,100616.94
2022-10-28T14:53:19.789Z,100620.06
2022-10-28T14:55:58.907Z,100621.59
2022-10-28T14:58:32.590Z,100625.19
2022-10-28T15:01:18.025Z,100623.31
2022-10-28T15:03:50.602Z,100618.59
2022-10-28T15:06:29.110Z,100615.56
2022-10-28T15:09:13.305Z,100622.22
2022-10-28T15:11:50.044Z,100634.28
2022-10-28T15:14:38.132Z,100638.25
2022-10-28T15:17:16.222Z,100645.78
2022-10-28T15:19:48.499Z,100641.66
2022-10-28T15:22:34.472Z,100645.59
2022-10-28T15:25:12.399Z,100642.59
2022-10-28T15:27:50.804Z,100653.91
2022-10-28T15:30:27.656Z,100658.16
2022-10-28T15:32:59.646Z,100662.38
2022-10-28T15:35:41.702Z,100665.75
2022-10-28T15:38:43.988Z,100673.66
2022-10-28T15:41:45.314Z,100674.56
2022-10-28T15:44:33.850Z,100678.00
2022-10-28T15:47:17.808Z,100674.41
2022-10-28T15:49:48.282Z,100685.00
2022-10-28T15:52:24.368Z,100682.19
2022-10-28T15:55:00.221Z,100688.47
2022-10-28T15:57:35.985Z,100691.84
2022-10-28T16:00:24.732Z,100694.44
2022-10-28T16:02:56.969Z,100695.31
2022-10-28T16:05:49.394Z,100695.22
2022-10-28T16:08:23.206Z,100702.31
2022-10-28T16:10:53.804Z,100702.91
2022-10-28T16:13:26.704Z,100710.03
2022-10-28T16:16:02.779Z,100707.94
2022-10-28T16:18:33.404Z,100703.09
2022-10-28T16:21:03.190Z,100707.97
2022-10-28T16:23:36.860Z,100716.28
2022-10-28T16:26:06.578Z,100721.88
2022-10-28T16:28:38.005Z,100717.72
2022-10-28T16:31:14.335Z,100717.72
2022-10-28T16:33:44.270Z,100723.09
2022-10-28T16:36:14.218Z,100719.31
2022-10-28T16:38:43.759Z,100724.56
2022-10-28T16:41:18.111Z,100739.75
2022-10-28T16:43:48.615Z,100732.66
2022-10-28T16:46:21.243Z,100740.97
2022-10-28T16:48:51.037Z,100739.75
2022-10-28T16:51:20.878Z,100752.06
2022-10-28T16:53:53.444Z,100749.34
2022-10-28T16:56:23.264Z,100747.47
2022-10-28T16:58:54.747Z,100749.03
2022-10-28T17:01:27.060Z,100752.31
2022-10-28T17:03:56.707Z,100753.75
2022-10-28T17:06:26.811Z,100744.44
2022-10-28T17:09:02.942Z,100745.88
2022-10-28T17:11:33.569Z,100743.78
2022-10-28T17:14:03.127Z,100752.28
2022-10-28T17:16:37.980Z,100744.59
2022-10-28T17:19:10.369Z,100756.41
2022-10-28T17:21:39.916Z,100754.91
2022-10-28T17:24:10.228Z,100758.81
2022-10-28T17:26:40.069Z,100761.59
2022-10-28T17:29:11.007Z,100766.34
2022-10-28T17:31:43.211Z,100763.13
2022-10-28T17:34:13.115Z,100770.00
2022-10-28T17:36:42.913Z,100775.81
2022-10-28T17:39:17.786Z,100771.97
2022-10-28T17:41:49.662Z,100772.41
2022-10-28T17:44:20.191Z,100776.06
2022-10-28T17:46:54.053Z,100781.31
2022-10-28T17:49:25.866Z,100777.88
2022-10-28T17:52:01.071Z,100771.13
2022-10-28T17:54:31.079Z,100770.72
2022-10-28T17:57:00.910Z,100773.84
2022-10-28T17:59:30.756Z,100764.72
2022-10-28T18:02:03.413Z,100767.31
2022-10-28T18:04:33.284Z,100762.81
2022-10-28T18:07:02.822Z,100764.53
2022-10-28T18:09:32.944Z,100770.47
2022-10-28T18:12:03.555Z,100785.38
2022-10-28T18:14:33.201Z,100787.84
2022-10-28T18:17:05.697Z,100796.59
2022-10-28T18:19:35.284Z,100806.13
2022-10-28T18:22:04.984Z,100805.84
2022-10-28T18:24:34.603Z,100807.44
2022-10-28T18:27:04.199Z,100810.59
2022-10-28T18:29:33.788Z,100813.03
2022-10-28T18:32:06.764Z,100818.00
2022-10-28T18:34:36.402Z,100820.44
2022-10-28T18:37:08.417Z,100815.56
2022-10-28T18:39:38.257Z,100808.84
2022-10-28T18:42:10.737Z,100809.22
2022-10-28T18:44:41.973Z,100810.59
2022-10-28T18:47:14.159Z,100817.09
2022-10-28T18:49:45.589Z,100822.84
2022-10-28T18:52:15.586Z,100817.84
2022-10-28T18:54:45.389Z,100817.28
2022-10-28T18:57:14.952Z,100832.72
2022-10-28T19:00:16.971Z,100835.69
2022-10-28T19:02:37.421Z,100840.28
2022-10-28T19:05:07.976Z,100839.41
2022-10-28T19:07:37.958Z,100836.09
2022-10-28T19:10:09.111Z,100834.56
2022-10-28T19:12:42.868Z,100838.28
2022-10-28T19:15:14.774Z,100839.31
2022-10-28T19:17:47.018Z,100843.78
2022-10-28T19:20:16.945Z,100845.72
2022-10-28T19:22:46.519Z,100841.31
2022-10-28T19:25:16.573Z,100842.34
2022-10-28T19:27:46.142Z,100851.16
2022-10-28T19:30:15.924Z,100852.69
2022-10-28T19:32:48.213Z,100849.72
2022-10-28T19:35:17.844Z,100854.72
2022-10-28T19:37:47.430Z,100848.97
2022-10-28T19:40:17.202Z,100857.56
2022-10-28T19:42:47.284Z,100860.06
2022-10-28T19:45:17.328Z,100862.72
2022-10-28T19:47:49.814Z,100861.88
2022-10-28T19:50:19.564Z,100862.91
2022-10-28T19:52:49.338Z,100868.28
2022-10-28T19:55:19.119Z,100879.06
2022-10-28T19:57:51.890Z,100882.78
2022-10-28T20:00:23.116Z,100893.47
2022-10-28T20:02:55.803Z,100894.31
2022-10-28T20:05:25.575Z,100897.00
2022-10-28T20:07:55.770Z,100889.84
2022-10-28T20:10:25.575Z,100891.66
2022-10-28T20:12:55.300Z,100898.81
2022-10-28T20:15:25.276Z,100899.00
2022-10-28T20:17:57.985Z,100893.66
2022-10-28T20:20:27.765Z,100891.94
2022-10-28T20:22:57.830Z,100904.47
2022-10-28T20:25:27.749Z,100899.19
2022-10-28T20:27:57.968Z,100908.28
2022-10-28T20:30:27.807Z,100912.81
2022-10-28T20:33:00.090Z,100912.06
2022-10-28T20:35:30.070Z,100919.22
2022-10-28T20:38:00.145Z,100912.22
2022-10-28T20:40:29.865Z,100910.59
2022-10-28T20:42:59.771Z,100919.59
2022-10-28T20:45:29.351Z,100914.06
2022-10-28T20:48:01.976Z,100920.00
2022-10-28T20:50:31.761Z,100927.63
2022-10-28T20:53:01.328Z,100938.94
2022-10-28T20:55:31.035Z,100935.88
2022-10-28T20:58:00.865Z,100944.47
2022-10-28T21:00:30.483Z,100938.88
2022-10-28T21:03:03.171Z,100937.03
2022-10-28T21:05:33.775Z,100937.16
2022-10-28T21:08:03.499Z,100946.22
2022-10-28T21:10:33.056Z,100950.03
2022-10-28T21:13:02.632Z,100952.97
2022-10-28T21:15:32.921Z,100948.84
2022-10-28T21:18:05.325Z,100954.38
2022-10-28T21:20:36.811Z,100956.44
2022-10-28T21:23:07.393Z,100953.13
2022-10-28T21:25:37.164Z,100945.34
2022-10-28T21:28:07.588Z,100946.31
2022-10-28T21:30:37.435Z,100949.16
2022-10-28T21:33:11.299Z,100951.06
2022-10-28T21:35:41.143Z,100952.00
2022-10-28T21:38:11.068Z,100956.66
2022-10-28T21:40:40.844Z,100955.13
2022-10-28T21:43:10.911Z,100955.41
2022-10-28T21:45:40.545Z,100958.25
2022-10-28T21:48:12.683Z,100953.94
2022-10-28T21:50:42.231Z,100952.31
2022-10-28T21:53:11.925Z,100956.03
2022-10-28T21:55:47.114Z,100952.50
2022-10-28T21:58:18.533Z,100951.72
2022-10-28T22:00:48.958Z,100950.00
2022-10-28T22:03:21.183Z,100952.84
2022-10-28T22:05:53.816Z,100953.03
2022-10-28T22:08:23.653Z,100946.84
2022-10-28T22:10:53.977Z,100945.16
2022-10-28T22:13:23.512Z,100949.53
2022-10-28T22:15:59.109Z,100950.25
2022-10-28T22:18:31.691Z,100955.50
2022-10-28T22:21:06.737Z,100951.72
2022-10-28T22:23:36.841Z,100962.25
2022-10-28T22:26:07.585Z,100961.13
2022-10-28T22:28:37.347Z,100958.16
2022-10-28T22:31:08.875Z,100954.28
2022-10-28T22:33:41.430Z,100956.75
2022-10-28T22:36:12.923Z,100954.09
2022-10-28T22:38:43.345Z,100955.06
2022-10-28T22:41:15.503Z,100953.44
2022-10-28T22:43:46.518Z,100957.97
2022-10-28T22:46:17.148Z,100953.66
2022-10-28T22:48:49.698Z,100952.03
2022-10-28T22:51:19.791Z,100946.97
2022-10-28T22:53:49.363Z,100944.47
2022-10-28T22:56:21.297Z,100940.25
2022-10-28T22:58:51.531Z,100949.31
2022-10-28T23:01:22.433Z,100954.03
2022-10-28T23:03:55.933Z,100952.38
2022-10-28T23:06:27.459Z,100953.31
2022-10-28T23:08:57.471Z,100949.88
2022-10-28T23:11:27.041Z,100949.09
2022-10-28T23:13:57.259Z,100951.88
2022-10-28T23:16:27.519Z,100956.34
2022-10-28T23:18:59.873Z,100956.34
2022-10-28T23:21:29.878Z,100952.84
2022-10-28T23:24:00.737Z,100953.78
2022-10-28T23:26:31.949Z,100951.28
2022-10-28T23:29:02.794Z,100955.84
2022-10-28T23:31:32.500Z,100956.88
2022-10-28T23:34:04.629Z,100953.44
2022-10-28T23:36:34.878Z,100951.00
2022-10-28T23:39:04.435Z,100947.66
2022-10-28T23:41:34.018Z,100946.88
2022-10-28T23:44:03.835Z,100953.16
2022-10-28T23:46:37.407Z,100960.31
2022-10-28T23:49:09.987Z,100964.84
2022-10-28T23:51:39.648Z,100983.63
2022-10-28T23:54:09.226Z,100977.53
2022-10-28T23:56:38.843Z,100975.63
2022-10-28T23:59:08.385Z,100969.34
